sensor_id;sensor_type;location;lat;lon;timestamp;P1;durP1;ratioP1;P2;durP2;ratioP2
31990;SDS011;18508;49.386;8.370;2023-06-14T00:00:45;12.30;;;6.32;;
31990;SDS011;18508;49.386;8.370;2023-06-14T00:03:16;11.25;;;6.38;;
31990;SDS011;18508;49.386;8.370;2023-06-14T00:05:46;12.60;;;7.05;;
31990;SDS011;18508;49.386;8.370;2023-06-14T00:08:14;10.40;;;6.40;;
31990;SDS011;18508;49.386;8.370;2023-06-14T00:10:42;13.50;;;6.45;;
31990;SDS011;18508;49.386;8.370;2023-06-14T00:13:11;10.63;;;6.70;;
31990;SDS011;18508;49.386;8.370;2023-06-14T00:15:39;11.18;;;6.60;;
31990;SDS011;18508;49.386;8.370;2023-06-14T00:18:07;12.05;;;6.78;;
31990;SDS011;18508;49.386;8.370;2023-06-14T00:20:39;12.57;;;7.00;;
31990;SDS011;18508;49.386;8.370;2023-06-14T00:23:08;19.50;;;6.95;;
31990;SDS011;18508;49.386;8.370;2023-06-14T00:25:36;13.85;;;7.65;;
31990;SDS011;18508;49.386;8.370;2023-06-14T00:28:04;10.68;;;6.47;;
31990;SDS011;18508;49.386;8.370;2023-06-14T00:30:34;15.25;;;6.85;;
31990;SDS011;18508;49.386;8.370;2023-06-14T00:33:02;11.57;;;6.63;;
31990;SDS011;18508;49.386;8.370;2023-06-14T00:35:31;13.35;;;6.90;;
31990;SDS011;18508;49.386;8.370;2023-06-14T00:38:01;13.30;;;6.97;;
31990;SDS011;18508;49.386;8.370;2023-06-14T00:40:30;11.15;;;6.68;;
31990;SDS011;18508;49.386;8.370;2023-06-14T00:42:58;10.43;;;7.30;;
31990;SDS011;18508;49.386;8.370;2023-06-14T00:45:27;13.85;;;7.22;;
31990;SDS011;18508;49.386;8.370;2023-06-14T00:47:57;11.00;;;6.32;;
31990;SDS011;18508;49.386;8.370;2023-06-14T00:50:26;11.48;;;6.75;;
31990;SDS011;18508;49.386;8.370;2023-06-14T00:52:55;11.52;;;6.40;;
31990;SDS011;18508;49.386;8.370;2023-06-14T00:55:25;9.15;;;5.82;;
31990;SDS011;18508;49.386;8.370;2023-06-14T00:57:53;11.30;;;6.53;;
31990;SDS011;18508;49.386;8.370;2023-06-14T01:00:22;15.30;;;6.72;;
31990;SDS011;18508;49.386;8.370;2023-06-14T01:02:51;8.57;;;6.10;;
31990;SDS011;18508;49.386;8.370;2023-06-14T01:05:20;10.30;;;6.18;;
31990;SDS011;18508;49.386;8.370;2023-06-14T01:07:55;10.30;;;6.03;;
31990;SDS011;18508;49.386;8.370;2023-06-14T01:10:44;8.68;;;6.30;;
31990;SDS011;18508;49.386;8.370;2023-06-14T01:13:21;9.68;;;6.18;;
31990;SDS011;18508;49.386;8.370;2023-06-14T01:15:55;9.35;;;6.20;;
31990;SDS011;18508;49.386;8.370;2023-06-14T01:18:24;11.07;;;6.45;;
31990;SDS011;18508;49.386;8.370;2023-06-14T01:20:52;11.80;;;7.03;;
31990;SDS011;18508;49.386;8.370;2023-06-14T01:23:23;10.32;;;7.10;;
31990;SDS011;18508;49.386;8.370;2023-06-14T01:25:58;11.13;;;6.55;;
31990;SDS011;18508;49.386;8.370;2023-06-14T01:28:30;11.27;;;6.50;;
31990;SDS011;18508;49.386;8.370;2023-06-14T01:31:01;12.95;;;6.57;;
31990;SDS011;18508;49.386;8.370;2023-06-14T01:33:31;11.90;;;6.65;;
31990;SDS011;18508;49.386;8.370;2023-06-14T01:36:02;11.13;;;6.68;;
31990;SDS011;18508;49.386;8.370;2023-06-14T01:38:33;14.68;;;6.43;;
31990;SDS011;18508;49.386;8.370;2023-06-14T01:41:01;9.82;;;6.88;;
31990;SDS011;18508;49.386;8.370;2023-06-14T01:43:31;9.82;;;6.60;;
31990;SDS011;18508;49.386;8.370;2023-06-14T01:46:01;8.82;;;6.40;;
31990;SDS011;18508;49.386;8.370;2023-06-14T01:48:30;11.27;;;7.18;;
31990;SDS011;18508;49.386;8.370;2023-06-14T01:50:59;11.32;;;7.78;;
31990;SDS011;18508;49.386;8.370;2023-06-14T01:53:28;9.65;;;6.78;;
31990;SDS011;18508;49.386;8.370;2023-06-14T01:55:58;11.75;;;6.93;;
31990;SDS011;18508;49.386;8.370;2023-06-14T01:58:28;10.02;;;6.40;;
31990;SDS011;18508;49.386;8.370;2023-06-14T02:00:56;11.43;;;7.30;;
31990;SDS011;18508;49.386;8.370;2023-06-14T02:03:27;13.57;;;7.88;;
31990;SDS011;18508;49.386;8.370;2023-06-14T02:05:57;9.95;;;6.97;;
31990;SDS011;18508;49.386;8.370;2023-06-14T02:08:26;13.13;;;7.32;;
31990;SDS011;18508;49.386;8.370;2023-06-14T02:10:55;11.70;;;7.68;;
31990;SDS011;18508;49.386;8.370;2023-06-14T02:13:24;11.65;;;7.65;;
31990;SDS011;18508;49.386;8.370;2023-06-14T02:15:53;10.63;;;7.00;;
31990;SDS011;18508;49.386;8.370;2023-06-14T02:18:22;11.30;;;6.97;;
31990;SDS011;18508;49.386;8.370;2023-06-14T02:20:54;9.20;;;6.95;;
31990;SDS011;18508;49.386;8.370;2023-06-14T02:23:23;9.20;;;6.93;;
31990;SDS011;18508;49.386;8.370;2023-06-14T02:25:51;12.38;;;7.50;;
31990;SDS011;18508;49.386;8.370;2023-06-14T02:28:19;12.68;;;6.88;;
31990;SDS011;18508;49.386;8.370;2023-06-14T02:30:49;12.35;;;7.20;;
31990;SDS011;18508;49.386;8.370;2023-06-14T02:33:17;12.43;;;7.40;;
31990;SDS011;18508;49.386;8.370;2023-06-14T02:35:46;12.57;;;7.65;;
31990;SDS011;18508;49.386;8.370;2023-06-14T02:38:14;12.93;;;7.78;;
31990;SDS011;18508;49.386;8.370;2023-06-14T02:40:43;12.70;;;7.57;;
31990;SDS011;18508;49.386;8.370;2023-06-14T02:43:11;10.75;;;7.65;;
31990;SDS011;18508;49.386;8.370;2023-06-14T02:45:39;12.20;;;8.25;;
31990;SDS011;18508;49.386;8.370;2023-06-14T02:48:09;10.63;;;7.22;;
31990;SDS011;18508;49.386;8.370;2023-06-14T02:50:38;11.93;;;8.38;;
31990;SDS011;18508;49.386;8.370;2023-06-14T02:53:06;12.55;;;7.47;;
31990;SDS011;18508;49.386;8.370;2023-06-14T02:55:35;14.52;;;8.10;;
31990;SDS011;18508;49.386;8.370;2023-06-14T02:58:06;13.02;;;7.47;;
31990;SDS011;18508;49.386;8.370;2023-06-14T03:00:35;10.05;;;7.35;;
31990;SDS011;18508;49.386;8.370;2023-06-14T03:03:05;12.27;;;7.63;;
31990;SDS011;18508;49.386;8.370;2023-06-14T03:05:40;13.50;;;8.98;;
31990;SDS011;18508;49.386;8.370;2023-06-14T03:08:12;16.38;;;7.50;;
31990;SDS011;18508;49.386;8.370;2023-06-14T03:10:43;13.10;;;8.05;;
31990;SDS011;18508;49.386;8.370;2023-06-14T03:13:11;11.77;;;6.93;;
31990;SDS011;18508;49.386;8.370;2023-06-14T03:15:39;10.50;;;7.47;;
31990;SDS011;18508;49.386;8.370;2023-06-14T03:18:08;14.98;;;8.18;;
31990;SDS011;18508;49.386;8.370;2023-06-14T03:20:38;12.05;;;7.20;;
31990;SDS011;18508;49.386;8.370;2023-06-14T03:23:09;13.38;;;7.72;;
31990;SDS011;18508;49.386;8.370;2023-06-14T03:25:37;13.98;;;7.97;;
31990;SDS011;18508;49.386;8.370;2023-06-14T03:28:08;10.57;;;7.50;;
31990;SDS011;18508;49.386;8.370;2023-06-14T03:30:36;14.68;;;7.75;;
31990;SDS011;18508;49.386;8.370;2023-06-14T03:33:05;9.65;;;7.57;;
31990;SDS011;18508;49.386;8.370;2023-06-14T03:35:33;11.15;;;7.20;;
31990;SDS011;18508;49.386;8.370;2023-06-14T03:38:02;12.35;;;7.20;;
31990;SDS011;18508;49.386;8.370;2023-06-14T03:40:34;11.85;;;7.10;;
31990;SDS011;18508;49.386;8.370;2023-06-14T03:43:02;10.50;;;7.25;;
31990;SDS011;18508;49.386;8.370;2023-06-14T03:45:30;10.57;;;7.63;;
31990;SDS011;18508;49.386;8.370;2023-06-14T03:47:58;9.55;;;7.05;;
31990;SDS011;18508;49.386;8.370;2023-06-14T03:50:27;11.95;;;7.32;;
31990;SDS011;18508;49.386;8.370;2023-06-14T03:52:55;10.55;;;7.28;;
31990;SDS011;18508;49.386;8.370;2023-06-14T03:55:25;9.90;;;7.13;;
31990;SDS011;18508;49.386;8.370;2023-06-14T04:00:25;12.38;;;7.55;;
31990;SDS011;18508;49.386;8.370;2023-06-14T04:02:54;13.25;;;7.28;;
31990;SDS011;18508;49.386;8.370;2023-06-14T04:05:22;9.38;;;7.22;;
31990;SDS011;18508;49.386;8.370;2023-06-14T04:07:53;11.85;;;7.38;;
31990;SDS011;18508;49.386;8.370;2023-06-14T04:10:22;15.77;;;6.78;;
31990;SDS011;18508;49.386;8.370;2023-06-14T04:12:52;15.07;;;7.60;;
31990;SDS011;18508;49.386;8.370;2023-06-14T04:15:23;10.30;;;6.85;;
31990;SDS011;18508;49.386;8.370;2023-06-14T04:17:52;12.23;;;7.50;;
31990;SDS011;18508;49.386;8.370;2023-06-14T04:20:24;13.82;;;7.32;;
31990;SDS011;18508;49.386;8.370;2023-06-14T04:22:52;12.30;;;7.07;;
31990;SDS011;18508;49.386;8.370;2023-06-14T04:25:24;15.05;;;7.20;;
31990;SDS011;18508;49.386;8.370;2023-06-14T04:27:56;9.73;;;7.22;;
31990;SDS011;18508;49.386;8.370;2023-06-14T04:30:25;13.88;;;7.50;;
31990;SDS011;18508;49.386;8.370;2023-06-14T04:32:57;11.30;;;6.63;;
31990;SDS011;18508;49.386;8.370;2023-06-14T04:35:27;14.27;;;7.30;;
31990;SDS011;18508;49.386;8.370;2023-06-14T04:37:55;12.18;;;6.63;;
31990;SDS011;18508;49.386;8.370;2023-06-14T04:40:26;13.13;;;6.53;;
31990;SDS011;18508;49.386;8.370;2023-06-14T04:42:54;13.18;;;6.78;;
31990;SDS011;18508;49.386;8.370;2023-06-14T04:45:22;12.93;;;7.20;;
31990;SDS011;18508;49.386;8.370;2023-06-14T04:47:50;13.35;;;7.70;;
31990;SDS011;18508;49.386;8.370;2023-06-14T04:50:24;11.50;;;6.75;;
31990;SDS011;18508;49.386;8.370;2023-06-14T04:52:52;11.93;;;6.40;;
31990;SDS011;18508;49.386;8.370;2023-06-14T04:55:21;12.98;;;7.03;;
31990;SDS011;18508;49.386;8.370;2023-06-14T04:57:52;12.23;;;7.00;;
31990;SDS011;18508;49.386;8.370;2023-06-14T05:00:20;10.98;;;7.70;;
31990;SDS011;18508;49.386;8.370;2023-06-14T05:02:49;11.27;;;7.20;;
31990;SDS011;18508;49.386;8.370;2023-06-14T05:05:19;11.43;;;6.93;;
31990;SDS011;18508;49.386;8.370;2023-06-14T05:07:47;11.98;;;6.38;;
31990;SDS011;18508;49.386;8.370;2023-06-14T05:10:19;12.43;;;7.03;;
31990;SDS011;18508;49.386;8.370;2023-06-14T05:12:48;14.85;;;6.90;;
31990;SDS011;18508;49.386;8.370;2023-06-14T05:15:17;16.60;;;6.82;;
31990;SDS011;18508;49.386;8.370;2023-06-14T05:17:46;14.35;;;7.28;;
31990;SDS011;18508;49.386;8.370;2023-06-14T05:20:21;22.58;;;7.57;;
31990;SDS011;18508;49.386;8.370;2023-06-14T05:22:52;15.05;;;7.25;;
31990;SDS011;18508;49.386;8.370;2023-06-14T05:25:20;17.02;;;6.97;;
31990;SDS011;18508;49.386;8.370;2023-06-14T05:27:48;12.55;;;6.55;;
31990;SDS011;18508;49.386;8.370;2023-06-14T05:30:18;11.20;;;6.93;;
31990;SDS011;18508;49.386;8.370;2023-06-14T05:32:46;15.60;;;6.88;;
31990;SDS011;18508;49.386;8.370;2023-06-14T05:35:15;12.15;;;6.90;;
31990;SDS011;18508;49.386;8.370;2023-06-14T05:37:44;10.20;;;6.95;;
31990;SDS011;18508;49.386;8.370;2023-06-14T05:40:14;10.98;;;6.57;;
31990;SDS011;18508;49.386;8.370;2023-06-14T05:42:43;13.05;;;6.95;;
31990;SDS011;18508;49.386;8.370;2023-06-14T05:45:12;11.48;;;7.00;;
31990;SDS011;18508;49.386;8.370;2023-06-14T05:47:43;9.73;;;6.88;;
31990;SDS011;18508;49.386;8.370;2023-06-14T05:50:11;12.20;;;6.47;;
31990;SDS011;18508;49.386;8.370;2023-06-14T05:52:39;10.07;;;7.20;;
31990;SDS011;18508;49.386;8.370;2023-06-14T05:55:08;12.32;;;6.35;;
31990;SDS011;18508;49.386;8.370;2023-06-14T05:57:39;11.90;;;6.45;;
31990;SDS011;18508;49.386;8.370;2023-06-14T06:00:08;11.82;;;6.57;;
31990;SDS011;18508;49.386;8.370;2023-06-14T06:02:41;9.57;;;6.25;;
31990;SDS011;18508;49.386;8.370;2023-06-14T06:05:14;12.23;;;6.47;;
31990;SDS011;18508;49.386;8.370;2023-06-14T06:07:44;12.80;;;6.68;;
31990;SDS011;18508;49.386;8.370;2023-06-14T06:10:12;10.40;;;6.10;;
31990;SDS011;18508;49.386;8.370;2023-06-14T06:12:41;8.93;;;6.65;;
31990;SDS011;18508;49.386;8.370;2023-06-14T06:15:10;11.02;;;6.63;;
31990;SDS011;18508;49.386;8.370;2023-06-14T06:17:39;14.00;;;6.60;;
31990;SDS011;18508;49.386;8.370;2023-06-14T06:20:22;9.35;;;6.00;;
31990;SDS011;18508;49.386;8.370;2023-06-14T06:22:56;10.00;;;5.93;;
31990;SDS011;18508;49.386;8.370;2023-06-14T06:25:24;9.27;;;5.70;;
31990;SDS011;18508;49.386;8.370;2023-06-14T06:27:53;7.68;;;5.78;;
31990;SDS011;18508;49.386;8.370;2023-06-14T06:30:23;12.38;;;6.32;;
31990;SDS011;18508;49.386;8.370;2023-06-14T06:32:52;11.65;;;6.10;;
31990;SDS011;18508;49.386;8.370;2023-06-14T06:35:24;9.32;;;5.63;;
31990;SDS011;18508;49.386;8.370;2023-06-14T06:37:52;9.30;;;6.05;;
31990;SDS011;18508;49.386;8.370;2023-06-14T06:40:20;9.27;;;6.18;;
31990;SDS011;18508;49.386;8.370;2023-06-14T06:42:48;8.82;;;5.97;;
31990;SDS011;18508;49.386;8.370;2023-06-14T06:45:17;12.45;;;6.55;;
31990;SDS011;18508;49.386;8.370;2023-06-14T06:47:46;9.07;;;6.00;;
31990;SDS011;18508;49.386;8.370;2023-06-14T06:50:14;8.68;;;5.90;;
31990;SDS011;18508;49.386;8.370;2023-06-14T06:52:44;8.38;;;6.18;;
31990;SDS011;18508;49.386;8.370;2023-06-14T06:55:13;10.18;;;6.05;;
31990;SDS011;18508;49.386;8.370;2023-06-14T06:57:42;11.95;;;6.15;;
31990;SDS011;18508;49.386;8.370;2023-06-14T07:00:11;8.70;;;5.65;;
31990;SDS011;18508;49.386;8.370;2023-06-14T07:02:40;9.95;;;5.32;;
31990;SDS011;18508;49.386;8.370;2023-06-14T07:05:08;10.02;;;5.40;;
31990;SDS011;18508;49.386;8.370;2023-06-14T07:07:36;14.95;;;6.38;;
31990;SDS011;18508;49.386;8.370;2023-06-14T07:10:08;9.90;;;5.40;;
31990;SDS011;18508;49.386;8.370;2023-06-14T07:12:36;9.88;;;5.75;;
31990;SDS011;18508;49.386;8.370;2023-06-14T07:15:06;7.55;;;5.53;;
31990;SDS011;18508;49.386;8.370;2023-06-14T07:17:35;9.52;;;6.00;;
31990;SDS011;18508;49.386;8.370;2023-06-14T07:20:04;9.00;;;5.80;;
31990;SDS011;18508;49.386;8.370;2023-06-14T07:22:39;9.27;;;5.53;;
31990;SDS011;18508;49.386;8.370;2023-06-14T07:25:11;8.50;;;5.22;;
31990;SDS011;18508;49.386;8.370;2023-06-14T07:27:42;7.53;;;5.22;;
31990;SDS011;18508;49.386;8.370;2023-06-14T07:30:11;10.60;;;5.20;;
31990;SDS011;18508;49.386;8.370;2023-06-14T07:32:40;12.48;;;5.22;;
31990;SDS011;18508;49.386;8.370;2023-06-14T07:35:08;10.40;;;5.32;;
31990;SDS011;18508;49.386;8.370;2023-06-14T07:37:38;8.82;;;5.45;;
31990;SDS011;18508;49.386;8.370;2023-06-14T07:40:07;8.13;;;5.22;;
31990;SDS011;18508;49.386;8.370;2023-06-14T07:42:38;10.73;;;5.30;;
31990;SDS011;18508;49.386;8.370;2023-06-14T07:45:07;11.95;;;5.18;;
31990;SDS011;18508;49.386;8.370;2023-06-14T07:47:36;8.77;;;4.97;;
31990;SDS011;18508;49.386;8.370;2023-06-14T07:50:05;5.55;;;4.40;;
31990;SDS011;18508;49.386;8.370;2023-06-14T07:52:35;10.43;;;4.68;;
31990;SDS011;18508;49.386;8.370;2023-06-14T07:55:03;7.53;;;5.00;;
31990;SDS011;18508;49.386;8.370;2023-06-14T07:57:33;7.80;;;5.00;;
31990;SDS011;18508;49.386;8.370;2023-06-14T08:00:03;8.95;;;4.82;;
31990;SDS011;18508;49.386;8.370;2023-06-14T08:02:34;7.72;;;5.25;;
31990;SDS011;18508;49.386;8.370;2023-06-14T08:05:02;7.30;;;4.53;;
31990;SDS011;18508;49.386;8.370;2023-06-14T08:07:31;8.98;;;5.07;;
31990;SDS011;18508;49.386;8.370;2023-06-14T08:10:00;6.65;;;4.78;;
31990;SDS011;18508;49.386;8.370;2023-06-14T08:12:29;6.35;;;4.68;;
31990;SDS011;18508;49.386;8.370;2023-06-14T08:14:59;6.57;;;5.03;;
31990;SDS011;18508;49.386;8.370;2023-06-14T08:17:35;5.53;;;4.50;;
31990;SDS011;18508;49.386;8.370;2023-06-14T08:20:04;7.93;;;4.82;;
31990;SDS011;18508;49.386;8.370;2023-06-14T08:22:37;9.43;;;4.57;;
31990;SDS011;18508;49.386;8.370;2023-06-14T08:25:08;7.78;;;4.85;;
31990;SDS011;18508;49.386;8.370;2023-06-14T08:27:37;8.27;;;5.00;;
31990;SDS011;18508;49.386;8.370;2023-06-14T08:30:06;7.50;;;4.32;;
31990;SDS011;18508;49.386;8.370;2023-06-14T08:32:38;7.22;;;4.20;;
31990;SDS011;18508;49.386;8.370;2023-06-14T08:35:06;8.25;;;4.75;;
31990;SDS011;18508;49.386;8.370;2023-06-14T08:37:38;8.07;;;4.80;;
31990;SDS011;18508;49.386;8.370;2023-06-14T08:40:12;7.30;;;5.10;;
31990;SDS011;18508;49.386;8.370;2023-06-14T08:42:48;6.82;;;4.80;;
31990;SDS011;18508;49.386;8.370;2023-06-14T08:45:18;8.82;;;4.68;;
31990;SDS011;18508;49.386;8.370;2023-06-14T08:47:53;5.78;;;4.38;;
31990;SDS011;18508;49.386;8.370;2023-06-14T08:50:25;8.02;;;4.20;;
31990;SDS011;18508;49.386;8.370;2023-06-14T08:53:00;8.05;;;3.92;;
31990;SDS011;18508;49.386;8.370;2023-06-14T08:55:31;6.78;;;4.10;;
31990;SDS011;18508;49.386;8.370;2023-06-14T08:58:03;7.07;;;3.90;;
31990;SDS011;18508;49.386;8.370;2023-06-14T09:00:32;5.07;;;3.70;;
31990;SDS011;18508;49.386;8.370;2023-06-14T09:03:02;7.25;;;4.03;;
31990;SDS011;18508;49.386;8.370;2023-06-14T09:05:32;8.38;;;4.43;;
31990;SDS011;18508;49.386;8.370;2023-06-14T09:08:00;6.85;;;4.50;;
31990;SDS011;18508;49.386;8.370;2023-06-14T09:10:32;8.05;;;4.03;;
31990;SDS011;18508;49.386;8.370;2023-06-14T09:13:04;9.47;;;4.67;;
31990;SDS011;18508;49.386;8.370;2023-06-14T09:15:32;8.55;;;3.80;;
31990;SDS011;18508;49.386;8.370;2023-06-14T09:18:03;6.47;;;3.60;;
31990;SDS011;18508;49.386;8.370;2023-06-14T09:20:32;5.90;;;3.70;;
31990;SDS011;18508;49.386;8.370;2023-06-14T09:23:01;5.45;;;3.60;;
31990;SDS011;18508;49.386;8.370;2023-06-14T09:25:32;6.22;;;3.80;;
31990;SDS011;18508;49.386;8.370;2023-06-14T09:28:08;5.57;;;4.20;;
31990;SDS011;18508;49.386;8.370;2023-06-14T09:30:37;6.30;;;4.13;;
31990;SDS011;18508;49.386;8.370;2023-06-14T09:33:07;6.10;;;3.67;;
31990;SDS011;18508;49.386;8.370;2023-06-14T09:35:36;6.57;;;3.42;;
31990;SDS011;18508;49.386;8.370;2023-06-14T09:38:04;6.70;;;3.97;;
31990;SDS011;18508;49.386;8.370;2023-06-14T09:40:34;4.90;;;3.30;;
31990;SDS011;18508;49.386;8.370;2023-06-14T09:43:06;7.43;;;3.58;;
31990;SDS011;18508;49.386;8.370;2023-06-14T09:45:36;9.30;;;3.47;;
31990;SDS011;18508;49.386;8.370;2023-06-14T09:48:08;4.88;;;3.22;;
31990;SDS011;18508;49.386;8.370;2023-06-14T09:50:37;6.47;;;3.58;;
31990;SDS011;18508;49.386;8.370;2023-06-14T09:53:10;4.75;;;3.15;;
31990;SDS011;18508;49.386;8.370;2023-06-14T09:55:40;4.00;;;3.10;;
31990;SDS011;18508;49.386;8.370;2023-06-14T09:58:10;4.80;;;3.38;;
31990;SDS011;18508;49.386;8.370;2023-06-14T10:00:39;6.07;;;3.22;;
31990;SDS011;18508;49.386;8.370;2023-06-14T10:03:13;5.93;;;3.28;;
31990;SDS011;18508;49.386;8.370;2023-06-14T10:05:44;5.60;;;3.22;;
31990;SDS011;18508;49.386;8.370;2023-06-14T10:08:15;6.35;;;3.15;;
31990;SDS011;18508;49.386;8.370;2023-06-14T10:10:46;6.55;;;3.55;;
31990;SDS011;18508;49.386;8.370;2023-06-14T10:13:15;7.93;;;3.15;;
31990;SDS011;18508;49.386;8.370;2023-06-14T10:15:47;6.35;;;3.67;;
31990;SDS011;18508;49.386;8.370;2023-06-14T10:18:27;5.13;;;3.67;;
31990;SDS011;18508;49.386;8.370;2023-06-14T10:21:03;7.18;;;3.20;;
31990;SDS011;18508;49.386;8.370;2023-06-14T10:23:37;6.00;;;3.20;;
31990;SDS011;18508;49.386;8.370;2023-06-14T10:26:08;6.57;;;3.40;;
31990;SDS011;18508;49.386;8.370;2023-06-14T10:31:32;5.85;;;3.70;;
31990;SDS011;18508;49.386;8.370;2023-06-14T10:34:10;6.50;;;3.25;;
31990;SDS011;18508;49.386;8.370;2023-06-14T10:36:40;4.82;;;3.30;;
31990;SDS011;18508;49.386;8.370;2023-06-14T10:39:11;6.53;;;4.00;;
31990;SDS011;18508;49.386;8.370;2023-06-14T10:41:50;4.75;;;3.22;;
31990;SDS011;18508;49.386;8.370;2023-06-14T10:44:32;5.65;;;3.42;;
31990;SDS011;18508;49.386;8.370;2023-06-14T10:47:28;10.25;;;3.50;;
31990;SDS011;18508;49.386;8.370;2023-06-14T10:50:04;4.70;;;3.22;;
31990;SDS011;18508;49.386;8.370;2023-06-14T10:52:35;6.03;;;3.33;;
31990;SDS011;18508;49.386;8.370;2023-06-14T10:55:06;6.13;;;3.28;;
31990;SDS011;18508;49.386;8.370;2023-06-14T10:57:43;5.20;;;3.60;;
31990;SDS011;18508;49.386;8.370;2023-06-14T11:00:18;6.95;;;3.55;;
31990;SDS011;18508;49.386;8.370;2023-06-14T11:03:06;8.15;;;4.05;;
31990;SDS011;18508;49.386;8.370;2023-06-14T11:06:00;6.63;;;3.83;;
31990;SDS011;18508;49.386;8.370;2023-06-14T11:11:39;7.03;;;4.03;;
31990;SDS011;18508;49.386;8.370;2023-06-14T11:14:10;5.63;;;4.03;;
31990;SDS011;18508;49.386;8.370;2023-06-14T11:16:39;7.18;;;4.13;;
31990;SDS011;18508;49.386;8.370;2023-06-14T11:19:07;7.00;;;3.30;;
31990;SDS011;18508;49.386;8.370;2023-06-14T11:21:40;4.55;;;3.50;;
31990;SDS011;18508;49.386;8.370;2023-06-14T11:24:09;5.60;;;3.58;;
31990;SDS011;18508;49.386;8.370;2023-06-14T11:26:39;8.82;;;3.83;;
31990;SDS011;18508;49.386;8.370;2023-06-14T11:29:08;11.98;;;4.45;;
31990;SDS011;18508;49.386;8.370;2023-06-14T11:31:36;4.60;;;3.28;;
31990;SDS011;18508;49.386;8.370;2023-06-14T11:34:05;6.38;;;3.72;;
31990;SDS011;18508;49.386;8.370;2023-06-14T11:36:33;5.05;;;3.58;;
31990;SDS011;18508;49.386;8.370;2023-06-14T11:39:05;4.50;;;3.33;;
31990;SDS011;18508;49.386;8.370;2023-06-14T11:41:38;6.40;;;3.13;;
31990;SDS011;18508;49.386;8.370;2023-06-14T11:44:08;4.85;;;3.45;;
31990;SDS011;18508;49.386;8.370;2023-06-14T11:46:37;11.43;;;3.70;;
31990;SDS011;18508;49.386;8.370;2023-06-14T11:49:06;4.60;;;3.30;;
31990;SDS011;18508;49.386;8.370;2023-06-14T11:51:36;5.53;;;3.95;;
31990;SDS011;18508;49.386;8.370;2023-06-14T11:54:06;6.40;;;3.90;;
31990;SDS011;18508;49.386;8.370;2023-06-14T11:56:36;8.05;;;3.70;;
31990;SDS011;18508;49.386;8.370;2023-06-14T11:59:04;5.00;;;3.67;;
31990;SDS011;18508;49.386;8.370;2023-06-14T12:01:35;4.82;;;3.22;;
31990;SDS011;18508;49.386;8.370;2023-06-14T12:04:06;8.10;;;3.42;;
31990;SDS011;18508;49.386;8.370;2023-06-14T12:06:35;6.55;;;3.17;;
31990;SDS011;18508;49.386;8.370;2023-06-14T12:09:08;6.07;;;3.33;;
31990;SDS011;18508;49.386;8.370;2023-06-14T12:11:39;5.82;;;3.70;;
31990;SDS011;18508;49.386;8.370;2023-06-14T12:14:08;5.00;;;2.88;;
31990;SDS011;18508;49.386;8.370;2023-06-14T12:16:38;5.25;;;3.20;;
31990;SDS011;18508;49.386;8.370;2023-06-14T12:19:09;3.95;;;3.20;;
31990;SDS011;18508;49.386;8.370;2023-06-14T12:21:40;4.90;;;3.28;;
31990;SDS011;18508;49.386;8.370;2023-06-14T12:24:11;4.55;;;3.40;;
31990;SDS011;18508;49.386;8.370;2023-06-14T12:26:40;4.93;;;3.40;;
31990;SDS011;18508;49.386;8.370;2023-06-14T12:29:09;7.28;;;3.47;;
31990;SDS011;18508;49.386;8.370;2023-06-14T12:31:39;8.18;;;3.38;;
31990;SDS011;18508;49.386;8.370;2023-06-14T12:34:08;6.93;;;3.00;;
31990;SDS011;18508;49.386;8.370;2023-06-14T12:36:39;5.38;;;3.33;;
31990;SDS011;18508;49.386;8.370;2023-06-14T12:39:12;6.90;;;3.70;;
31990;SDS011;18508;49.386;8.370;2023-06-14T12:41:41;4.85;;;3.30;;
31990;SDS011;18508;49.386;8.370;2023-06-14T12:44:10;5.85;;;3.10;;
31990;SDS011;18508;49.386;8.370;2023-06-14T12:46:38;6.32;;;3.40;;
31990;SDS011;18508;49.386;8.370;2023-06-14T12:49:08;5.60;;;3.53;;
31990;SDS011;18508;49.386;8.370;2023-06-14T12:51:38;5.80;;;3.28;;
31990;SDS011;18508;49.386;8.370;2023-06-14T12:54:07;3.80;;;3.05;;
31990;SDS011;18508;49.386;8.370;2023-06-14T12:56:37;6.53;;;3.17;;
31990;SDS011;18508;49.386;8.370;2023-06-14T12:59:07;4.80;;;3.28;;
31990;SDS011;18508;49.386;8.370;2023-06-14T13:01:37;5.43;;;3.50;;
31990;SDS011;18508;49.386;8.370;2023-06-14T13:04:06;6.20;;;3.42;;
31990;SDS011;18508;49.386;8.370;2023-06-14T13:06:34;5.50;;;3.80;;
31990;SDS011;18508;49.386;8.370;2023-06-14T13:09:05;5.03;;;3.58;;
31990;SDS011;18508;49.386;8.370;2023-06-14T13:11:34;8.90;;;3.50;;
31990;SDS011;18508;49.386;8.370;2023-06-14T13:14:04;4.90;;;3.70;;
31990;SDS011;18508;49.386;8.370;2023-06-14T13:16:50;5.95;;;3.45;;
31990;SDS011;18508;49.386;8.370;2023-06-14T13:19:20;7.32;;;3.60;;
31990;SDS011;18508;49.386;8.370;2023-06-14T13:21:48;5.43;;;3.70;;
31990;SDS011;18508;49.386;8.370;2023-06-14T13:24:18;4.65;;;3.70;;
31990;SDS011;18508;49.386;8.370;2023-06-14T13:26:48;6.40;;;3.72;;
31990;SDS011;18508;49.386;8.370;2023-06-14T13:29:18;5.88;;;3.05;;
31990;SDS011;18508;49.386;8.370;2023-06-14T13:31:46;4.63;;;3.25;;
31990;SDS011;18508;49.386;8.370;2023-06-14T13:34:14;3.90;;;3.28;;
31990;SDS011;18508;49.386;8.370;2023-06-14T13:36:43;5.63;;;3.58;;
31990;SDS011;18508;49.386;8.370;2023-06-14T13:39:11;5.80;;;3.25;;
31990;SDS011;18508;49.386;8.370;2023-06-14T13:41:40;4.43;;;3.28;;
31990;SDS011;18508;49.386;8.370;2023-06-14T13:44:08;4.55;;;3.20;;
31990;SDS011;18508;49.386;8.370;2023-06-14T13:46:59;5.75;;;3.20;;
31990;SDS011;18508;49.386;8.370;2023-06-14T13:49:45;4.78;;;2.63;;
31990;SDS011;18508;49.386;8.370;2023-06-14T13:52:13;4.88;;;3.25;;
31990;SDS011;18508;49.386;8.370;2023-06-14T13:55:00;6.22;;;3.13;;
31990;SDS011;18508;49.386;8.370;2023-06-14T13:57:46;6.95;;;3.40;;
31990;SDS011;18508;49.386;8.370;2023-06-14T14:00:32;5.03;;;3.17;;
31990;SDS011;18508;49.386;8.370;2023-06-14T14:03:25;5.43;;;3.50;;
31990;SDS011;18508;49.386;8.370;2023-06-14T14:05:53;5.78;;;3.35;;
31990;SDS011;18508;49.386;8.370;2023-06-14T14:08:22;3.60;;;3.10;;
31990;SDS011;18508;49.386;8.370;2023-06-14T14:10:51;4.70;;;3.50;;
31990;SDS011;18508;49.386;8.370;2023-06-14T14:13:19;4.38;;;3.40;;
31990;SDS011;18508;49.386;8.370;2023-06-14T14:16:05;4.15;;;3.30;;
31990;SDS011;18508;49.386;8.370;2023-06-14T14:18:53;5.07;;;3.17;;
31990;SDS011;18508;49.386;8.370;2023-06-14T14:21:21;4.20;;;2.95;;
31990;SDS011;18508;49.386;8.370;2023-06-14T14:23:50;5.05;;;3.58;;
31990;SDS011;18508;49.386;8.370;2023-06-14T14:26:36;8.10;;;3.40;;
31990;SDS011;18508;49.386;8.370;2023-06-14T14:29:04;5.35;;;3.38;;
31990;SDS011;18508;49.386;8.370;2023-06-14T14:31:32;4.85;;;3.50;;
31990;SDS011;18508;49.386;8.370;2023-06-14T14:34:02;5.30;;;3.53;;
31990;SDS011;18508;49.386;8.370;2023-06-14T14:36:31;5.00;;;3.58;;
31990;SDS011;18508;49.386;8.370;2023-06-14T14:39:03;4.35;;;3.60;;
31990;SDS011;18508;49.386;8.370;2023-06-14T14:41:38;7.57;;;3.63;;
31990;SDS011;18508;49.386;8.370;2023-06-14T14:44:08;5.53;;;3.63;;
31990;SDS011;18508;49.386;8.370;2023-06-14T14:46:36;4.75;;;3.60;;
31990;SDS011;18508;49.386;8.370;2023-06-14T14:49:06;5.85;;;3.70;;
31990;SDS011;18508;49.386;8.370;2023-06-14T14:51:34;4.45;;;3.22;;
31990;SDS011;18508;49.386;8.370;2023-06-14T14:54:04;5.93;;;3.83;;
31990;SDS011;18508;49.386;8.370;2023-06-14T14:56:33;8.35;;;3.50;;
31990;SDS011;18508;49.386;8.370;2023-06-14T14:59:04;5.53;;;3.22;;
31990;SDS011;18508;49.386;8.370;2023-06-14T15:01:32;4.38;;;3.47;;
31990;SDS011;18508;49.386;8.370;2023-06-14T15:04:01;5.90;;;3.70;;
31990;SDS011;18508;49.386;8.370;2023-06-14T15:06:32;5.18;;;3.72;;
31990;SDS011;18508;49.386;8.370;2023-06-14T15:09:05;4.57;;;3.40;;
31990;SDS011;18508;49.386;8.370;2023-06-14T15:11:33;4.93;;;3.50;;